Time;durP1;ratioP1;P1;durP2;ratioP2;P2;SDS_P1;SDS_P2;PMS_P1;PMS_P2;Temp;Humidity;BMP_temperature;BMP_pressure;BME280_temperature;BME280_humidity;BME280_pressure;Samples;Min_cycle;Max_cycle;Signal;HPM_P1;HPM_P2
2023/01/03 00:00:45;;;;;;;10.18;2.35;;;;;;;;;;4927726;28;20040;-72
2023/01/03 00:03:16;;;;;;;14.60;2.28;;;;;;;;;;4927631;28;20758;-73
2023/01/03 00:05:44;;;;;;;14.73;2.35;;;;;;;;;;4992176;28;20045;-72
2023/01/03 00:08:12;;;;;;;12.52;2.33;;;;;;;;;;4928603;28;20046;-73
2023/01/03 00:10:38;;;;;;;16.00;2.30;;;;;;;;;;4927987;28;20160;-72
2023/01/03 00:13:03;;;;;;;7.20;2.15;;;;;;;;;;4928216;28;20513;-72
2023/01/03 00:15:29;;;;;;;11.27;2.35;;;;;;;;;;4929164;28;20031;-72
2023/01/03 00:17:55;;;;;;;14.60;2.28;;;;;;;;;;4927165;28;20039;-72
2023/01/03 00:20:20;;;;;;;15.13;2.75;;;;;;;;;;4970561;28;20048;-72
2023/01/03 00:22:46;;;;;;;10.20;2.55;;;;;;;;;;5023058;28;20025;-71
2023/01/03 00:25:11;;;;;;;14.70;2.80;;;;;;;;;;5022577;28;20127;-71
2023/01/03 00:27:36;;;;;;;14.70;2.72;;;;;;;;;;5023342;28;20029;-71
2023/01/03 00:30:02;;;;;;;15.45;3.03;;;;;;;;;;5007994;28;20132;-72
2023/01/03 00:32:27;;;;;;;10.75;2.40;;;;;;;;;;5024347;28;20409;-71
2023/01/03 00:34:55;;;;;;;14.02;2.45;;;;;;;;;;5009138;28;20029;-72
2023/01/03 00:37:20;;;;;;;13.63;2.92;;;;;;;;;;4993334;28;20036;-71
2023/01/03 00:39:48;;;;;;;19.33;2.53;;;;;;;;;;5009799;28;20523;-72
2023/01/03 00:42:16;;;;;;;13.15;2.13;;;;;;;;;;5025727;28;20067;-72
2023/01/03 00:44:43;;;;;;;11.38;1.85;;;;;;;;;;5027200;28;20090;-73
2023/01/03 00:47:09;;;;;;;12.15;2.42;;;;;;;;;;5027221;28;20112;-72
2023/01/03 00:49:34;;;;;;;13.73;1.98;;;;;;;;;;5008959;28;20051;-72
2023/01/03 00:52:00;;;;;;;13.98;2.25;;;;;;;;;;5026997;28;20120;-72
2023/01/03 00:54:27;;;;;;;13.05;2.00;;;;;;;;;;5025600;28;20146;-72
2023/01/03 00:56:55;;;;;;;12.45;2.40;;;;;;;;;;5024865;28;20029;-72
2023/01/03 00:59:22;;;;;;;11.38;2.30;;;;;;;;;;5026034;28;20132;-73
2023/01/03 01:01:49;;;;;;;18.55;2.50;;;;;;;;;;5024795;28;20267;-72
2023/01/03 01:04:15;;;;;;;12.70;2.47;;;;;;;;;;5025651;28;20148;-72
2023/01/03 01:06:43;;;;;;;9.15;1.92;;;;;;;;;;5026621;28;20040;-71
2023/01/03 01:09:10;;;;;;;17.67;2.90;;;;;;;;;;5027074;28;20064;-72
2023/01/03 01:11:38;;;;;;;15.50;2.17;;;;;;;;;;5026653;28;20037;-71
2023/01/03 01:14:18;;;;;;;10.50;1.90;;;;;;;;;;5025624;28;20036;-72
2023/01/03 01:16:44;;;;;;;8.38;1.50;;;;;;;;;;5026783;28;20090;-72
2023/01/03 01:19:12;;;;;;;13.73;2.33;;;;;;;;;;5007670;28;20057;-72
2023/01/03 01:21:37;;;;;;;8.15;2.00;;;;;;;;;;4943815;28;20124;-72
2023/01/03 01:24:03;;;;;;;18.02;2.47;;;;;;;;;;4944439;28;20492;-72
2023/01/03 01:26:28;;;;;;;10.23;2.05;;;;;;;;;;4944025;28;20030;-72
2023/01/03 01:28:54;;;;;;;9.15;1.83;;;;;;;;;;4943665;28;20031;-72
2023/01/03 01:31:20;;;;;;;14.13;2.10;;;;;;;;;;4941809;28;20505;-71
2023/01/03 01:33:47;;;;;;;17.95;2.20;;;;;;;;;;4943962;28;20273;-72
2023/01/03 01:36:18;;;;;;;14.18;2.17;;;;;;;;;;4944039;28;20039;-71
2023/01/03 01:38:46;;;;;;;12.82;2.00;;;;;;;;;;4926363;28;20053;-72
2023/01/03 01:44:36;;;;;;;15.75;2.33;;;;;;;;;;4944101;28;20503;-71
2023/01/03 01:46:45;;;;;;;12.88;2.00;;;;;;;;;;4923790;28;20317;-71
2023/01/03 01:49:16;;;;;;;10.02;2.00;;;;;;;;;;4922847;28;20572;-71
2023/01/03 01:51:42;;;;;;;13.50;1.80;;;;;;;;;;4925337;28;20039;-71
2023/01/03 01:54:08;;;;;;;9.38;1.88;;;;;;;;;;4933372;28;20038;-72
2023/01/03 01:56:35;;;;;;;9.57;2.05;;;;;;;;;;4925931;28;20041;-71
2023/01/03 01:59:01;;;;;;;15.20;3.35;;;;;;;;;;4943843;28;20050;-71
2023/01/03 02:01:33;;;;;;;18.60;3.13;;;;;;;;;;4944194;28;20045;-71
2023/01/03 02:04:08;;;;;;;10.77;1.90;;;;;;;;;;4943798;28;20099;-71
2023/01/03 02:06:34;;;;;;;16.00;2.13;;;;;;;;;;4943772;28;20423;-71
2023/01/03 02:08:59;;;;;;;13.45;2.13;;;;;;;;;;4926556;28;20271;-72
2023/01/03 02:11:25;;;;;;;13.18;2.10;;;;;;;;;;4942921;28;20035;-71
2023/01/03 02:14:09;;;;;;;9.40;2.28;;;;;;;;;;4944113;28;20449;-72
2023/01/03 02:16:47;;;;;;;9.88;2.30;;;;;;;;;;4925553;28;20043;-71
2023/01/03 02:19:17;;;;;;;8.35;1.95;;;;;;;;;;4942709;28;20039;-70
2023/01/03 02:21:52;;;;;;;8.43;2.47;;;;;;;;;;4924259;28;20457;-71
2023/01/03 02:24:43;;;;;;;13.32;2.13;;;;;;;;;;4941514;28;20088;-71
2023/01/03 02:27:17;;;;;;;14.90;2.53;;;;;;;;;;4949867;28;20134;-71
2023/01/03 02:29:52;;;;;;;8.73;1.85;;;;;;;;;;4942635;28;20438;-71
2023/01/03 02:32:20;;;;;;;12.80;2.63;;;;;;;;;;4924987;28;20579;-71
2023/01/03 02:34:45;;;;;;;11.65;2.10;;;;;;;;;;4942411;28;20043;-71
2023/01/03 02:37:22;;;;;;;10.27;2.20;;;;;;;;;;4925393;28;20031;-71
2023/01/03 02:40:06;;;;;;;13.60;2.20;;;;;;;;;;4924965;28;20051;-71
2023/01/03 02:45:22;;;;;;;13.35;2.35;;;;;;;;;;4942591;28;20288;-71
2023/01/03 02:47:51;;;;;;;13.15;2.58;;;;;;;;;;4942013;28;20035;-71
2023/01/03 02:50:19;;;;;;;15.60;2.65;;;;;;;;;;4941389;28;20035;-71
2023/01/03 02:52:46;;;;;;;18.70;2.35;;;;;;;;;;4940542;28;20054;-71
2023/01/03 02:55:18;;;;;;;10.75;1.98;;;;;;;;;;4941582;28;20661;-70
2023/01/03 02:57:48;;;;;;;13.07;2.33;;;;;;;;;;4941612;28;20179;-70
2023/01/03 03:00:15;;;;;;;14.25;2.00;;;;;;;;;;4941486;28;20114;-71
2023/01/03 03:02:44;;;;;;;12.50;2.22;;;;;;;;;;4940198;28;20062;-71
2023/01/03 03:05:13;;;;;;;14.05;2.13;;;;;;;;;;4941947;28;20567;-72
2023/01/03 03:07:39;;;;;;;15.95;2.95;;;;;;;;;;4941875;28;20026;-71
2023/01/03 03:15:48;;;;;;;16.60;2.70;;;;;;;;;;4941640;28;20109;-71
2023/01/03 03:18:20;;;;;;;15.63;3.17;;;;;;;;;;4939869;28;20125;-71
2023/01/03 03:26:18;;;;;;;25.48;4.68;;;;;;;;;;4940614;28;20096;-71
2023/01/03 03:28:45;;;;;;;15.75;5.13;;;;;;;;;;4940971;28;20453;-70
2023/01/03 03:31:21;;;;;;;17.55;4.72;;;;;;;;;;4941276;28;20442;-70
2023/01/03 03:33:53;;;;;;;18.52;4.90;;;;;;;;;;4940550;28;20100;-71
2023/01/03 03:36:44;;;;;;;21.45;4.47;;;;;;;;;;4923346;28;20267;-70
2023/01/03 03:44:59;;;;;;;19.50;4.83;;;;;;;;;;4942789;28;20434;-70
2023/01/03 03:44:59;;;;;;;13.73;4.00;;;;;;;;;;4940501;28;20039;-71
2023/01/03 03:47:36;;;;;;;14.30;4.35;;;;;;;;;;4940380;28;20038;-71
2023/01/03 03:50:04;;;;;;;17.02;7.00;;;;;;;;;;4940542;28;20046;-71
2023/01/03 03:52:31;;;;;;;20.58;8.00;;;;;;;;;;4940070;28;20126;-71
2023/01/03 03:55:05;;;;;;;22.23;7.00;;;;;;;;;;4940335;28;20035;-72
2023/01/03 03:57:34;;;;;;;15.73;6.65;;;;;;;;;;4922723;28;20244;-72
2023/01/03 04:00:02;;;;;;;14.82;5.22;;;;;;;;;;4939261;28;20066;-72
2023/01/03 04:02:29;;;;;;;20.23;6.75;;;;;;;;;;4939787;28;20548;-72
2023/01/03 04:04:57;;;;;;;13.98;5.97;;;;;;;;;;4939619;28;20045;-70
2023/01/03 04:07:22;;;;;;;16.10;6.70;;;;;;;;;;4939499;28;20514;-71
2023/01/03 04:09:50;;;;;;;16.02;6.93;;;;;;;;;;4943406;28;20478;-71
2023/01/03 04:12:15;;;;;;;17.75;6.90;;;;;;;;;;4926105;28;20198;-70
2023/01/03 04:14:40;;;;;;;17.88;7.20;;;;;;;;;;4943007;28;20455;-71
2023/01/03 04:17:06;;;;;;;18.60;8.10;;;;;;;;;;4925278;28;20034;-71
2023/01/03 04:19:33;;;;;;;19.42;8.43;;;;;;;;;;4943654;28;20043;-71
2023/01/03 04:21:58;;;;;;;23.00;9.35;;;;;;;;;;4925833;28;20573;-71
2023/01/03 04:24:23;;;;;;;26.60;10.85;;;;;;;;;;4943651;28;20045;-71
2023/01/03 04:26:49;;;;;;;20.25;12.70;;;;;;;;;;4943230;28;20208;-71
2023/01/03 04:29:14;;;;;;;24.38;11.73;;;;;;;;;;4943889;28;20125;-71
2023/01/03 04:31:42;;;;;;;24.15;12.40;;;;;;;;;;4942901;28;20030;-71
2023/01/03 04:34:10;;;;;;;27.15;14.00;;;;;;;;;;4943556;28;20105;-71
2023/01/03 04:36:35;;;;;;;28.38;14.52;;;;;;;;;;4926266;28;20291;-71
2023/01/03 04:39:05;;;;;;;23.10;13.35;;;;;;;;;;4925669;28;20524;-72
2023/01/03 04:41:31;;;;;;;28.52;13.23;;;;;;;;;;4925966;28;20040;-71
2023/01/03 04:44:03;;;;;;;27.67;13.32;;;;;;;;;;4942978;28;20031;-71
2023/01/03 04:46:34;;;;;;;26.05;14.55;;;;;;;;;;4943061;28;20259;-71
2023/01/03 04:49:02;;;;;;;32.10;15.88;;;;;;;;;;4942538;28;20092;-71
2023/01/03 04:51:28;;;;;;;28.20;15.50;;;;;;;;;;4942234;28;20566;-71
2023/01/03 04:53:54;;;;;;;28.40;17.77;;;;;;;;;;4942654;28;20034;-71
2023/01/03 04:56:23;;;;;;;29.00;16.80;;;;;;;;;;4942915;28;20187;-72
2023/01/03 04:58:48;;;;;;;28.98;15.90;;;;;;;;;;4942141;28;20455;-72
2023/01/03 05:01:16;;;;;;;43.88;20.45;;;;;;;;;;4941167;28;20041;-72
2023/01/03 05:03:41;;;;;;;40.30;20.90;;;;;;;;;;4909291;28;20477;-71
2023/01/03 05:06:09;;;;;;;37.47;18.75;;;;;;;;;;4942664;28;20517;-72
2023/01/03 05:08:35;;;;;;;35.00;18.17;;;;;;;;;;4942259;28;20073;-70
2023/01/03 05:11:03;;;;;;;30.08;16.58;;;;;;;;;;4941990;28;20035;-72
2023/01/03 05:13:31;;;;;;;39.17;19.80;;;;;;;;;;4942600;28;20573;-70
2023/01/03 05:16:05;;;;;;;37.13;19.40;;;;;;;;;;4941574;28;20183;-70
2023/01/03 05:18:30;;;;;;;39.03;21.00;;;;;;;;;;4941900;28;20545;-71
2023/01/03 05:26:23;;;;;;;34.17;19.35;;;;;;;;;;4904346;28;20036;-71
2023/01/03 05:28:51;;;;;;;40.03;20.67;;;;;;;;;;4902705;28;20023;-71
2023/01/03 05:31:16;;;;;;;41.50;20.70;;;;;;;;;;4904317;28;20384;-71
2023/01/03 05:33:41;;;;;;;38.13;20.95;;;;;;;;;;4904606;28;20032;-71
2023/01/03 05:36:07;;;;;;;38.17;20.60;;;;;;;;;;4904067;28;20181;-72
2023/01/03 05:38:33;;;;;;;42.30;21.23;;;;;;;;;;4887329;28;20216;-71
2023/01/03 05:40:58;;;;;;;39.63;21.85;;;;;;;;;;4903985;28;20060;-71
2023/01/03 05:43:28;;;;;;;37.28;21.65;;;;;;;;;;4886622;28;20093;-72
2023/01/03 05:45:54;;;;;;;38.78;20.63;;;;;;;;;;4907043;28;20047;-71
2023/01/03 05:48:20;;;;;;;38.58;20.90;;;;;;;;;;4920941;28;20035;-71
2023/01/03 05:50:45;;;;;;;39.85;21.70;;;;;;;;;;4923083;28;20354;-71
2023/01/03 05:53:11;;;;;;;41.13;21.30;;;;;;;;;;4922697;28;20769;-71
2023/01/03 05:55:37;;;;;;;41.97;21.67;;;;;;;;;;4923058;28;20035;-70
2023/01/03 05:58:03;;;;;;;43.38;22.30;;;;;;;;;;4921948;28;20035;-70
2023/01/03 06:00:28;;;;;;;45.15;23.95;;;;;;;;;;4923259;28;20058;-71
2023/01/03 06:02:54;;;;;;;43.80;23.55;;;;;;;;;;4921604;28;20427;-73
2023/01/03 06:05:19;;;;;;;43.20;23.38;;;;;;;;;;4922969;28;20035;-72
2023/01/03 06:07:45;;;;;;;50.13;24.00;;;;;;;;;;4922456;28;20028;-72
2023/01/03 06:10:10;;;;;;;51.03;25.83;;;;;;;;;;4905486;28;20298;-71
2023/01/03 06:12:38;;;;;;;47.58;23.55;;;;;;;;;;4904750;28;20039;-71
2023/01/03 06:15:04;;;;;;;50.22;26.60;;;;;;;;;;4921462;28;20262;-71
2023/01/03 06:20:19;;;;;;;49.45;27.33;;;;;;;;;;4911617;28;20046;-71
2023/01/03 06:22:47;;;;;;;56.42;28.90;;;;;;;;;;4923902;28;20030;-71
2023/01/03 06:25:12;;;;;;;56.35;29.60;;;;;;;;;;4942135;28;20435;-72
2023/01/03 06:27:37;;;;;;;62.10;34.45;;;;;;;;;;4940020;28;20303;-71
2023/01/03 06:30:03;;;;;;;71.45;37.40;;;;;;;;;;4941547;28;20043;-71
2023/01/03 06:32:30;;;;;;;72.43;38.40;;;;;;;;;;4941335;28;20744;-72
2023/01/03 06:34:56;;;;;;;68.28;37.50;;;;;;;;;;4940623;28;20035;-72
2023/01/03 06:37:21;;;;;;;57.65;35.17;;;;;;;;;;4941618;28;20147;-71
2023/01/03 06:39:46;;;;;;;59.75;34.78;;;;;;;;;;4941429;28;20050;-71
2023/01/03 06:53:37;;;;;;;63.95;35.20;;;;;;;;;;4923578;28;20109;-70
2023/01/03 06:56:04;;;;;;;59.40;35.63;;;;;;;;;;4923314;28;20036;-70
2023/01/03 06:58:29;;;;;;;70.28;38.30;;;;;;;;;;4923609;28;20047;-70
2023/01/03 07:00:55;;;;;;;70.53;38.67;;;;;;;;;;4904046;28;20126;-71
2023/01/03 07:03:21;;;;;;;73.13;38.92;;;;;;;;;;4923562;28;20043;-71
2023/01/03 07:05:46;;;;;;;65.40;35.20;;;;;;;;;;4923065;28;20672;-70
2023/01/03 07:08:14;;;;;;;60.92;34.72;;;;;;;;;;4920434;28;20043;-71
2023/01/03 07:10:39;;;;;;;53.25;32.83;;;;;;;;;;4922857;28;20031;-71
2023/01/03 07:15:49;;;;;;;60.28;33.22;;;;;;;;;;4923128;28;20046;-71
2023/01/03 07:18:15;;;;;;;62.20;33.63;;;;;;;;;;4923092;28;20044;-71
2023/01/03 07:20:44;;;;;;;49.55;31.60;;;;;;;;;;4923460;28;20182;-71
2023/01/03 07:23:10;;;;;;;53.33;31.45;;;;;;;;;;4936771;28;20679;-71
2023/01/03 07:25:40;;;;;;;50.10;29.85;;;;;;;;;;5005868;28;20027;-71
2023/01/03 07:28:05;;;;;;;55.20;30.50;;;;;;;;;;5005786;28;20115;-71
2023/01/03 07:30:31;;;;;;;52.75;31.67;;;;;;;;;;4940718;28;20670;-70
2023/01/03 07:32:56;;;;;;;53.05;30.67;;;;;;;;;;4939427;28;20454;-70
2023/01/03 07:35:21;;;;;;;46.60;28.48;;;;;;;;;;4939908;28;20497;-70
2023/01/03 07:37:47;;;;;;;44.08;27.80;;;;;;;;;;4939686;28;20038;-70
2023/01/03 07:40:15;;;;;;;47.78;28.17;;;;;;;;;;4940162;28;20560;-71
2023/01/03 07:45:26;;;;;;;41.08;24.58;;;;;;;;;;4926381;28;20601;-70
2023/01/03 07:47:54;;;;;;;38.67;24.05;;;;;;;;;;5001348;28;20030;-70
2023/01/03 07:50:22;;;;;;;42.80;26.27;;;;;;;;;;5003713;28;20051;-71
2023/01/03 07:52:47;;;;;;;42.28;26.83;;;;;;;;;;4940929;28;20035;-70
2023/01/03 07:55:12;;;;;;;40.28;25.45;;;;;;;;;;4939994;28;20138;-71
2023/01/03 07:57:38;;;;;;;37.80;22.88;;;;;;;;;;4938450;28;20557;-70
2023/01/03 08:00:04;;;;;;;40.45;23.60;;;;;;;;;;4939993;28;20039;-70
2023/01/03 08:02:31;;;;;;;39.67;24.35;;;;;;;;;;4989903;28;20514;-71
2023/01/03 08:04:59;;;;;;;46.30;25.80;;;;;;;;;;4939159;28;20424;-71
2023/01/03 08:07:24;;;;;;;38.20;21.83;;;;;;;;;;4989624;28;20056;-71
2023/01/03 08:15:20;;;;;;;39.08;21.90;;;;;;;;;;4994480;28;20035;-71
2023/01/03 08:17:45;;;;;;;35.58;19.10;;;;;;;;;;4940502;28;20169;-71
2023/01/03 08:20:14;;;;;;;33.17;19.40;;;;;;;;;;4939008;28;20043;-72
2023/01/03 08:22:39;;;;;;;32.22;18.83;;;;;;;;;;4939615;28;20497;-71
2023/01/03 08:25:04;;;;;;;31.48;19.27;;;;;;;;;;4922436;28;20038;-71
2023/01/03 08:27:32;;;;;;;27.85;17.75;;;;;;;;;;4940047;28;20035;-71
2023/01/03 08:30:02;;;;;;;29.02;16.92;;;;;;;;;;4907382;28;20317;-70
2023/01/03 08:32:27;;;;;;;35.60;18.95;;;;;;;;;;4940083;28;20031;-71
2023/01/03 08:34:53;;;;;;;32.58;18.35;;;;;;;;;;4922705;28;20101;-71
2023/01/03 08:37:18;;;;;;;44.75;22.98;;;;;;;;;;4922252;28;20263;-72
2023/01/03 08:40:00;;;;;;;56.50;24.30;;;;;;;;;;4922351;28;20038;-71
2023/01/03 08:42:28;;;;;;;42.50;23.75;;;;;;;;;;4939407;28;20172;-72
2023/01/03 08:44:56;;;;;;;48.03;23.52;;;;;;;;;;4906885;28;20500;-72
2023/01/03 08:47:21;;;;;;;38.10;22.42;;;;;;;;;;4939484;28;20057;-70
2023/01/03 08:49:49;;;;;;;39.47;22.70;;;;;;;;;;4939191;28;20027;-71
2023/01/03 08:52:14;;;;;;;33.53;20.90;;;;;;;;;;4939079;28;20035;-70
2023/01/03 08:54:39;;;;;;;41.50;22.23;;;;;;;;;;4940157;28;20042;-70
2023/01/03 08:57:05;;;;;;;38.70;23.00;;;;;;;;;;4942670;28;20027;-70
2023/01/03 08:59:33;;;;;;;37.67;23.00;;;;;;;;;;4942316;28;20842;-71
2023/01/03 09:01:58;;;;;;;39.50;23.60;;;;;;;;;;4925008;28;20176;-71
2023/01/03 09:04:23;;;;;;;45.17;24.58;;;;;;;;;;4925992;28;20169;-72
2023/01/03 09:06:52;;;;;;;36.25;24.13;;;;;;;;;;4942545;28;20668;-71
2023/01/03 09:09:17;;;;;;;35.70;24.17;;;;;;;;;;4925769;28;20035;-71
2023/01/03 09:11:42;;;;;;;43.13;25.63;;;;;;;;;;4942096;28;20256;-72
2023/01/03 09:14:07;;;;;;;37.67;25.05;;;;;;;;;;4925689;28;20108;-71
2023/01/03 09:16:36;;;;;;;38.83;24.90;;;;;;;;;;4941991;28;20026;-71
2023/01/03 09:19:01;;;;;;;38.78;25.75;;;;;;;;;;4940786;28;20038;-72
2023/01/03 09:21:29;;;;;;;44.60;26.60;;;;;;;;;;4924961;28;20504;-72
2023/01/03 09:23:55;;;;;;;41.50;27.25;;;;;;;;;;4925202;28;20035;-72
2023/01/03 09:26:23;;;;;;;46.58;28.48;;;;;;;;;;4943050;28;20322;-72
2023/01/03 09:28:50;;;;;;;45.67;28.50;;;;;;;;;;4942797;28;20042;-71
2023/01/03 09:31:16;;;;;;;48.58;31.25;;;;;;;;;;4925847;28;20031;-71
2023/01/03 09:33:41;;;;;;;54.72;32.55;;;;;;;;;;4943142;28;20314;-71
2023/01/03 09:36:09;;;;;;;60.72;34.67;;;;;;;;;;4943088;28;20041;-72
2023/01/03 09:38:34;;;;;;;57.03;32.83;;;;;;;;;;4925271;28;20046;-72
2023/01/03 09:41:13;;;;;;;52.67;31.77;;;;;;;;;;4943601;28;20058;-70
2023/01/03 09:43:39;;;;;;;50.40;32.63;;;;;;;;;;4942931;28;20057;-71
2023/01/03 09:46:08;;;;;;;54.03;32.30;;;;;;;;;;4942902;28;20063;-72
2023/01/03 09:48:34;;;;;;;52.83;32.33;;;;;;;;;;4942856;28;20031;-72
2023/01/03 09:51:02;;;;;;;57.25;32.70;;;;;;;;;;4941863;28;20037;-73
2023/01/03 10:04:55;;;;;;;57.70;33.95;;;;;;;;;;4942691;28;20166;-71
2023/01/03 10:07:28;;;;;;;58.00;35.80;;;;;;;;;;4941667;28;20038;-72
2023/01/03 10:10:11;;;;;;;55.25;34.10;;;;;;;;;;4942058;28;20404;-72
2023/01/03 10:12:46;;;;;;;53.50;32.67;;;;;;;;;;4942243;28;20035;-71
2023/01/03 10:15:17;;;;;;;55.72;34.70;;;;;;;;;;4942074;28;20154;-72
2023/01/03 10:17:48;;;;;;;62.50;38.45;;;;;;;;;;4942556;28;20389;-72
2023/01/03 10:20:28;;;;;;;59.10;37.30;;;;;;;;;;4941421;28;20058;-72
2023/01/03 10:22:59;;;;;;;65.32;38.70;;;;;;;;;;4943064;28;20653;-72
2023/01/03 10:25:28;;;;;;;63.15;39.30;;;;;;;;;;4942460;28;20141;-72
2023/01/03 10:28:10;;;;;;;62.88;37.75;;;;;;;;;;4942743;28;20121;-72
2023/01/03 10:30:55;;;;;;;83.68;43.30;;;;;;;;;;4941867;28;20043;-73
2023/01/03 10:33:23;;;;;;;69.95;39.40;;;;;;;;;;4942151;28;20038;-72
2023/01/03 10:35:48;;;;;;;64.43;37.55;;;;;;;;;;4941792;28;20095;-72
2023/01/03 10:38:16;;;;;;;60.08;36.05;;;;;;;;;;4942247;28;20595;-71
2023/01/03 10:40:46;;;;;;;60.15;35.20;;;;;;;;;;4908728;28;20027;-72
2023/01/03 10:43:14;;;;;;;63.70;35.17;;;;;;;;;;4923994;28;20553;-73
2023/01/03 10:45:52;;;;;;;57.35;33.15;;;;;;;;;;4942732;28;20037;-72
2023/01/03 10:48:18;;;;;;;53.85;33.47;;;;;;;;;;4938913;28;20103;-71
2023/01/03 10:50:43;;;;;;;54.60;33.92;;;;;;;;;;4942424;28;20107;-72
2023/01/03 10:53:10;;;;;;;51.95;33.35;;;;;;;;;;4942322;28;20118;-72
2023/01/03 10:55:44;;;;;;;58.00;35.60;;;;;;;;;;4908887;28;20123;-72
2023/01/03 10:58:15;;;;;;;61.08;35.70;;;;;;;;;;4940889;28;20057;-72
2023/01/03 11:00:41;;;;;;;53.35;33.67;;;;;;;;;;4924566;28;20027;-72
2023/01/03 11:03:12;;;;;;;50.15;32.97;;;;;;;;;;4942734;28;20144;-73
2023/01/03 11:05:42;;;;;;;53.33;33.93;;;;;;;;;;4942084;28;20056;-73
2023/01/03 11:08:17;;;;;;;59.67;36.13;;;;;;;;;;4925005;28;20260;-72
2023/01/03 11:10:49;;;;;;;69.15;35.60;;;;;;;;;;4941879;28;20374;-71
2023/01/03 11:13:21;;;;;;;50.33;32.10;;;;;;;;;;4941670;28;20027;-73
2023/01/03 11:15:51;;;;;;;59.53;34.95;;;;;;;;;;4942241;28;20027;-73
2023/01/03 11:18:17;;;;;;;58.78;37.15;;;;;;;;;;4941041;28;20379;-72
2023/01/03 11:20:51;;;;;;;53.38;33.60;;;;;;;;;;4940081;28;20042;-72
2023/01/03 11:23:35;;;;;;;61.30;33.67;;;;;;;;;;4941542;28;20329;-70
2023/01/03 11:26:23;;;;;;;58.88;32.67;;;;;;;;;;4941766;28;20041;-73
2023/01/03 11:28:54;;;;;;;54.65;33.85;;;;;;;;;;4940848;28;20672;-72
2023/01/03 11:31:19;;;;;;;53.28;32.70;;;;;;;;;;4924009;28;20067;-72
2023/01/03 11:33:44;;;;;;;55.58;31.65;;;;;;;;;;4941406;28;20602;-72
2023/01/03 11:36:17;;;;;;;53.20;31.48;;;;;;;;;;4940897;28;20885;-71
2023/01/03 11:38:44;;;;;;;50.67;30.92;;;;;;;;;;4940808;28;20146;-70
2023/01/03 11:41:26;;;;;;;52.83;31.23;;;;;;;;;;4940654;28;20604;-70
2023/01/03 11:44:17;;;;;;;48.13;31.98;;;;;;;;;;4941013;28;20122;-71
2023/01/03 11:46:46;;;;;;;47.37;29.73;;;;;;;;;;4940199;28;20039;-72
2023/01/03 11:49:22;;;;;;;52.17;32.17;;;;;;;;;;4939811;28;20081;-73
2023/01/03 11:52:14;;;;;;;48.58;29.50;;;;;;;;;;4940117;28;20480;-71
2023/01/03 11:54:54;;;;;;;41.22;27.98;;;;;;;;;;4947407;28;20034;-72
2023/01/03 11:57:27;;;;;;;40.22;28.42;;;;;;;;;;4940333;28;20035;-73
2023/01/03 12:00:21;;;;;;;41.47;26.40;;;;;;;;;;4940186;28;20058;-74
2023/01/03 12:02:55;;;;;;;45.55;28.55;;;;;;;;;;4940671;28;20027;-72
2023/01/03 12:05:29;;;;;;;39.53;26.70;;;;;;;;;;4923305;28;20149;-73
2023/01/03 12:08:13;;;;;;;40.20;25.17;;;;;;;;;;4940583;28;20057;-71
2023/01/03 12:10:45;;;;;;;36.03;25.23;;;;;;;;;;4939602;28;20256;-71
2023/01/03 12:13:13;;;;;;;39.97;24.10;;;;;;;;;;4940251;28;20481;-72
2023/01/03 12:15:52;;;;;;;38.13;23.98;;;;;;;;;;4939851;28;20100;-71
2023/01/03 12:18:21;;;;;;;40.60;25.00;;;;;;;;;;4940368;28;20525;-72
2023/01/03 12:20:50;;;;;;;38.00;23.33;;;;;;;;;;4940069;28;20038;-71
2023/01/03 12:23:29;;;;;;;39.95;23.95;;;;;;;;;;4940228;28;20330;-71
2023/01/03 12:25:56;;;;;;;40.47;23.00;;;;;;;;;;4940091;28;20579;-72
2023/01/03 12:28:30;;;;;;;38.45;22.88;;;;;;;;;;4940078;28;20031;-70
2023/01/03 12:30:57;;;;;;;46.47;23.67;;;;;;;;;;4925158;28;20512;-70
2023/01/03 12:33:46;;;;;;;40.38;24.02;;;;;;;;;;4943450;28;20331;-71
2023/01/03 12:36:17;;;;;;;36.28;21.40;;;;;;;;;;4889818;28;20077;-71
2023/01/03 12:38:49;;;;;;;38.92;22.60;;;;;;;;;;4925497;28;20159;-71
2023/01/03 12:41:20;;;;;;;39.83;23.80;;;;;;;;;;4925486;28;20555;-73
2023/01/03 12:43:49;;;;;;;35.70;19.48;;;;;;;;;;4943358;28;20749;-72
2023/01/03 12:46:17;;;;;;;38.42;20.50;;;;;;;;;;4942997;28;20104;-70
2023/01/03 12:48:42;;;;;;;32.97;20.02;;;;;;;;;;4926007;28;20042;-71
2023/01/03 12:51:08;;;;;;;35.55;19.23;;;;;;;;;;4942881;28;20504;-72
2023/01/03 12:53:45;;;;;;;29.90;17.08;;;;;;;;;;4943488;28;20118;-71
2023/01/03 12:56:29;;;;;;;30.98;17.70;;;;;;;;;;4940819;28;20027;-72
2023/01/03 12:59:16;;;;;;;25.15;15.73;;;;;;;;;;4942546;28;20057;-70
2023/01/03 13:01:44;;;;;;;38.60;17.25;;;;;;;;;;4942841;28;20038;-72
2023/01/03 13:04:15;;;;;;;28.50;16.98;;;;;;;;;;4942426;28;20327;-71
2023/01/03 13:06:45;;;;;;;24.73;17.08;;;;;;;;;;4941280;28;20033;-71
2023/01/03 13:09:16;;;;;;;26.17;15.93;;;;;;;;;;4942371;28;20038;-72
2023/01/03 13:11:45;;;;;;;26.80;16.67;;;;;;;;;;4925333;28;20422;-74
2023/01/03 13:14:21;;;;;;;31.15;17.65;;;;;;;;;;4941883;28;20304;-72
2023/01/03 13:16:48;;;;;;;31.08;17.33;;;;;;;;;;4942513;28;20039;-71
2023/01/03 13:19:22;;;;;;;30.08;16.77;;;;;;;;;;4943085;28;20072;-73
2023/01/03 13:21:54;;;;;;;28.38;16.23;;;;;;;;;;4924812;28;20047;-71
2023/01/03 13:24:38;;;;;;;29.17;17.98;;;;;;;;;;4942776;28;20071;-70
2023/01/03 13:27:19;;;;;;;25.40;14.85;;;;;;;;;;4942826;28;20295;-71
2023/01/03 13:29:48;;;;;;;37.70;17.02;;;;;;;;;;4925236;28;20066;-70
2023/01/03 13:32:24;;;;;;;27.58;14.85;;;;;;;;;;4942396;28;20407;-70
2023/01/03 13:34:53;;;;;;;28.10;16.35;;;;;;;;;;4942345;28;20382;-69
2023/01/03 13:37:33;;;;;;;23.40;12.60;;;;;;;;;;4924694;28;20031;-72
2023/01/03 13:40:09;;;;;;;24.50;13.43;;;;;;;;;;4942210;28;20051;-70
2023/01/03 13:42:39;;;;;;;23.33;14.15;;;;;;;;;;4919308;28;20204;-71
2023/01/03 13:45:14;;;;;;;21.25;12.15;;;;;;;;;;4942151;28;20035;-72
2023/01/03 13:47:48;;;;;;;28.83;14.38;;;;;;;;;;4941044;28;20034;-73
2023/01/03 13:50:33;;;;;;;24.13;13.40;;;;;;;;;;4932333;28;20034;-72
2023/01/03 13:53:02;;;;;;;30.40;14.25;;;;;;;;;;4923825;28;20038;-72
2023/01/03 13:55:35;;;;;;;24.05;13.43;;;;;;;;;;4942511;28;20402;-73
2023/01/03 13:58:00;;;;;;;24.25;13.13;;;;;;;;;;4941941;28;20399;-72
2023/01/03 14:00:27;;;;;;;22.60;12.80;;;;;;;;;;4942288;28;20034;-71
2023/01/03 14:03:11;;;;;;;20.85;12.32;;;;;;;;;;4941804;28;20031;-72
2023/01/03 14:05:41;;;;;;;22.58;12.20;;;;;;;;;;4943356;28;20795;-70
2023/01/03 14:08:19;;;;;;;22.08;11.68;;;;;;;;;;4941921;28;20232;-71
2023/01/03 14:11:05;;;;;;;27.25;12.68;;;;;;;;;;4942042;28;20031;-71
2023/01/03 14:13:42;;;;;;;20.45;11.85;;;;;;;;;;4940693;28;20694;-72
2023/01/03 14:16:25;;;;;;;22.75;12.18;;;;;;;;;;4942297;28;20046;-71
2023/01/03 14:19:01;;;;;;;24.08;12.02;;;;;;;;;;4941701;28;20647;-72
2023/01/03 14:21:40;;;;;;;23.10;12.10;;;;;;;;;;4939210;28;20050;-71
2023/01/03 14:24:19;;;;;;;24.08;11.10;;;;;;;;;;4942253;28;20437;-71
2023/01/03 14:26:45;;;;;;;17.33;9.93;;;;;;;;;;4943758;28;20118;-72
2023/01/03 14:29:15;;;;;;;20.02;10.82;;;;;;;;;;4941934;28;20330;-72
2023/01/03 14:31:44;;;;;;;26.45;12.68;;;;;;;;;;4942277;28;20549;-71
2023/01/03 14:34:24;;;;;;;26.48;11.15;;;;;;;;;;4942136;28;20031;-71
2023/01/03 14:36:49;;;;;;;26.15;12.00;;;;;;;;;;4924056;28;20033;-72
2023/01/03 14:39:19;;;;;;;32.85;13.13;;;;;;;;;;4941554;28;20354;-72
2023/01/03 14:41:45;;;;;;;30.10;13.25;;;;;;;;;;4908282;28;20345;-72
2023/01/03 14:44:10;;;;;;;20.65;11.60;;;;;;;;;;4941972;28;20526;-71
2023/01/03 14:46:36;;;;;;;23.65;12.32;;;;;;;;;;4941299;28;20046;-71
2023/01/03 14:49:04;;;;;;;27.38;12.88;;;;;;;;;;4941560;28;20114;-72
2023/01/03 14:51:34;;;;;;;33.83;16.33;;;;;;;;;;4941464;28;20030;-71
2023/01/03 14:54:02;;;;;;;30.92;12.30;;;;;;;;;;4942224;28;20056;-70
2023/01/03 14:56:31;;;;;;;22.25;11.60;;;;;;;;;;4941099;28;20157;-72
2023/01/03 14:58:57;;;;;;;25.20;11.80;;;;;;;;;;4941937;28;20039;-72
2023/01/03 15:01:22;;;;;;;26.60;13.05;;;;;;;;;;4940918;28;20061;-72
2023/01/03 15:03:48;;;;;;;31.40;14.20;;;;;;;;;;4941581;28;20035;-70
2023/01/03 15:06:18;;;;;;;29.13;13.73;;;;;;;;;;4940700;28;20495;-71
2023/01/03 15:08:46;;;;;;;29.13;14.50;;;;;;;;;;4940710;28;20367;-71
2023/01/03 15:11:21;;;;;;;29.05;13.05;;;;;;;;;;4941049;28;20611;-70
2023/01/03 15:13:46;;;;;;;;;;;;;;;;;;4923898;28;20062;-71
2023/01/03 15:16:20;;;;;;;43.33;15.82;;;;;;;;;;4939566;28;20406;-71
2023/01/03 15:18:45;;;;;;;34.88;16.73;;;;;;;;;;4941171;28;20031;-71
2023/01/03 15:21:17;;;;;;;27.80;14.05;;;;;;;;;;4940049;28;20088;-71
2023/01/03 15:23:44;;;;;;;32.38;15.98;;;;;;;;;;4940432;28;20047;-70
2023/01/03 15:26:20;;;;;;;33.08;15.88;;;;;;;;;;4941025;28;20282;-71
2023/01/03 15:28:53;;;;;;;34.72;17.85;;;;;;;;;;4941231;28;20030;-72
2023/01/03 15:31:35;;;;;;;34.00;16.38;;;;;;;;;;4940920;28;20380;-71
2023/01/03 15:34:01;;;;;;;46.60;20.98;;;;;;;;;;4923146;28;20142;-72
2023/01/03 15:36:27;;;;;;;27.95;11.88;;;;;;;;;;4923381;28;20038;-71